Time;durP1;ratioP1;P1;durP2;ratioP2;P2;SDS_P1;SDS_P2;PMS_P1;PMS_P2;Temp;Humidity;BMP_temperature;BMP_pressure;BME280_temperature;BME280_humidity;BME280_pressure;Samples;Min_cycle;Max_cycle;Signal;HPM_P1;HPM_P2
2021/10/04 00:00:37;;;;;;;3.13;1.00;;;;;18.10;100891.00;;;;5030936;28;20224;-77
2021/10/04 00:03:04;;;;;;;0.82;0.57;;;;;18.10;100891.00;;;;5043144;28;20212;-78
2021/10/04 00:05:33;;;;;;;1.17;0.73;;;;;18.10;100887.00;;;;5033066;28;20333;-77
2021/10/04 00:08:00;;;;;;;1.25;0.45;;;;;18.10;100892.00;;;;5039319;28;20578;-77
2021/10/04 00:10:27;;;;;;;0.93;0.68;;;;;18.00;100886.00;;;;5035264;28;20196;-78
2021/10/04 00:12:55;;;;;;;1.60;0.60;;;;;18.00;100894.00;;;;5036704;28;20215;-77
2021/10/04 00:15:24;;;;;;;2.15;0.65;;;;;18.00;100903.00;;;;5031648;28;20524;-77
2021/10/04 00:17:52;;;;;;;1.17;0.50;;;;;18.00;100895.00;;;;5028987;28;20188;-77
2021/10/04 00:20:20;;;;;;;1.60;0.70;;;;;18.00;100902.00;;;;5041013;28;20228;-78
2021/10/04 00:22:49;;;;;;;1.45;0.68;;;;;18.00;100914.00;;;;5035549;28;20195;-78
2021/10/04 00:25:17;;;;;;;1.75;0.50;;;;;18.00;100926.00;;;;5037424;28;20216;-78
2021/10/04 00:27:44;;;;;;;0.88;0.47;;;;;18.00;100936.00;;;;5032415;28;20203;-77
2021/10/04 00:30:12;;;;;;;1.38;0.60;;;;;18.00;100929.00;;;;5035244;28;20195;-78
2021/10/04 00:32:42;;;;;;;0.73;0.50;;;;;18.00;100930.00;;;;5037064;28;20193;-77
2021/10/04 00:35:10;;;;;;;0.55;0.20;;;;;18.00;100940.00;;;;5041966;28;20672;-77
2021/10/04 00:37:38;;;;;;;1.65;0.50;;;;;18.00;100945.00;;;;5033154;28;20231;-77
2021/10/04 00:40:10;;;;;;;0.68;0.47;;;;;17.90;100948.00;;;;5035131;28;20210;-77
2021/10/04 00:42:38;;;;;;;3.17;0.80;;;;;18.00;100956.00;;;;5043010;28;20214;-78
2021/10/04 00:45:08;;;;;;;2.83;0.60;;;;;17.90;100960.00;;;;5037968;28;20196;-77
2021/10/04 00:47:35;;;;;;;1.10;0.47;;;;;18.00;100969.00;;;;5036455;28;20705;-77
2021/10/04 00:50:03;;;;;;;1.23;0.60;;;;;18.00;100972.00;;;;5037019;28;20211;-77
2021/10/04 00:52:31;;;;;;;1.75;0.30;;;;;18.00;100960.00;;;;5043186;28;20670;-77
2021/10/04 00:54:58;;;;;;;1.13;0.50;;;;;18.00;100963.00;;;;5049042;28;20210;-77
2021/10/04 00:57:26;;;;;;;2.03;0.65;;;;;17.90;100957.00;;;;5041381;28;20213;-77
2021/10/04 00:59:54;;;;;;;2.72;0.50;;;;;18.00;100962.00;;;;5047702;28;20204;-77
2021/10/04 01:02:21;;;;;;;3.83;1.00;;;;;18.00;100966.00;;;;5029640;28;20216;-77
2021/10/04 01:04:48;;;;;;;0.85;0.50;;;;;18.00;100987.00;;;;5027888;28;20207;-77
2021/10/04 01:07:16;;;;;;;1.77;0.70;;;;;18.00;100987.00;;;;5029490;28;20655;-78
2021/10/04 01:09:43;;;;;;;1.30;0.50;;;;;18.00;100981.00;;;;5038444;28;20211;-77
2021/10/04 01:12:11;;;;;;;1.42;0.40;;;;;18.00;100981.00;;;;5041582;28;20200;-78
2021/10/04 01:14:40;;;;;;;0.68;0.30;;;;;17.90;100975.00;;;;5041954;28;20573;-78
2021/10/04 01:17:07;;;;;;;1.45;0.43;;;;;18.00;100982.00;;;;5029792;28;20193;-77
2021/10/04 01:19:39;;;;;;;0.68;0.50;;;;;17.90;100996.00;;;;5031528;28;20192;-77
2021/10/04 01:22:08;;;;;;;1.48;0.55;;;;;17.90;100997.00;;;;5030298;28;20216;-77
2021/10/04 01:24:35;;;;;;;1.73;0.45;;;;;17.90;100994.00;;;;5029338;28;20192;-77
2021/10/04 01:27:03;;;;;;;0.80;0.50;;;;;17.90;100990.00;;;;5028866;28;20678;-78
2021/10/04 01:29:31;;;;;;;1.27;0.57;;;;;17.90;100989.00;;;;5046797;28;20665;-78
2021/10/04 01:31:58;;;;;;;0.80;0.50;;;;;17.90;100982.00;;;;5042389;28;20195;-77
2021/10/04 01:34:25;;;;;;;2.85;1.10;;;;;17.90;100987.00;;;;5037310;28;20215;-78
2021/10/04 01:36:53;;;;;;;1.50;0.50;;;;;17.90;100998.00;;;;5035930;28;20239;-78
2021/10/04 01:39:21;;;;;;;1.17;0.40;;;;;17.90;100988.00;;;;5049643;28;20195;-77
2021/10/04 01:41:48;;;;;;;2.83;0.88;;;;;17.90;100993.00;;;;5042931;28;20678;-77
2021/10/04 01:44:16;;;;;;;0.65;0.35;;;;;17.90;100994.00;;;;5029640;28;20201;-78
2021/10/04 01:46:43;;;;;;;0.80;0.40;;;;;17.90;100988.00;;;;5034465;28;20223;-77
2021/10/04 01:49:10;;;;;;;3.08;0.40;;;;;17.90;100996.00;;;;5047442;28;20207;-77
2021/10/04 01:51:38;;;;;;;0.40;0.30;;;;;17.90;100996.00;;;;5044000;28;20204;-77
2021/10/04 01:54:05;;;;;;;0.73;0.60;;;;;17.90;100999.00;;;;5045374;28;20208;-77
2021/10/04 01:56:34;;;;;;;0.82;0.57;;;;;17.90;100995.00;;;;5047387;28;20207;-77
2021/10/04 01:59:01;;;;;;;1.10;0.55;;;;;17.90;100999.00;;;;5044029;28;20197;-77
2021/10/04 02:01:28;;;;;;;0.43;0.25;;;;;17.90;100997.00;;;;5037507;28;20226;-77
2021/10/04 02:03:56;;;;;;;1.00;0.45;;;;;17.90;100999.00;;;;5038676;28;20197;-77
2021/10/04 02:06:23;;;;;;;1.95;0.60;;;;;17.90;101009.00;;;;5036120;28;20207;-77
2021/10/04 02:08:50;;;;;;;1.77;0.30;;;;;17.90;101012.00;;;;5031333;28;20193;-78
2021/10/04 02:11:18;;;;;;;0.50;0.28;;;;;17.90;101018.00;;;;5030946;28;20193;-77
2021/10/04 02:13:46;;;;;;;3.05;0.63;;;;;17.90;101012.00;;;;5031979;28;20200;-77
2021/10/04 02:16:15;;;;;;;0.80;0.20;;;;;17.90;101014.00;;;;5030783;28;20208;-78
2021/10/04 02:18:43;;;;;;;1.08;0.40;;;;;17.90;101008.00;;;;5033383;28;20192;-77
2021/10/04 02:21:10;;;;;;;1.85;0.40;;;;;17.90;101009.00;;;;5037663;28;20223;-77
2021/10/04 02:23:37;;;;;;;0.40;0.30;;;;;17.90;101004.00;;;;5041616;28;20200;-77
2021/10/04 02:26:05;;;;;;;2.92;0.75;;;;;17.90;101005.00;;;;5038025;28;20196;-77
2021/10/04 02:28:32;;;;;;;0.70;0.30;;;;;17.90;101004.00;;;;5038438;28;20199;-78
2021/10/04 02:31:01;;;;;;;0.68;0.47;;;;;17.90;101004.00;;;;5047962;28;20199;-77
2021/10/04 02:33:28;;;;;;;1.38;0.45;;;;;17.90;100994.00;;;;5034994;28;20628;-77
2021/10/04 02:35:55;;;;;;;1.15;0.40;;;;;17.90;100996.00;;;;5040917;28;20223;-77
2021/10/04 02:38:23;;;;;;;0.55;0.28;;;;;17.80;100994.00;;;;5040205;28;20698;-78
2021/10/04 02:40:50;;;;;;;0.40;0.30;;;;;17.80;100987.00;;;;5048975;28;20278;-78
2021/10/04 02:43:20;;;;;;;0.85;0.50;;;;;17.80;100979.00;;;;5038846;28;20673;-78
2021/10/04 02:45:48;;;;;;;2.60;0.60;;;;;17.80;100991.00;;;;5044881;28;20230;-77
2021/10/04 02:48:17;;;;;;;0.90;0.30;;;;;17.80;100990.00;;;;5040739;28;20204;-78
2021/10/04 02:50:45;;;;;;;0.95;0.57;;;;;17.80;100992.00;;;;5032715;28;20211;-78
2021/10/04 02:53:12;;;;;;;0.98;0.65;;;;;17.80;100989.00;;;;5039443;28;20196;-78
2021/10/04 02:55:40;;;;;;;0.88;0.57;;;;;17.80;100985.00;;;;5034143;28;20886;-78
2021/10/04 02:58:07;;;;;;;1.70;0.65;;;;;17.80;100997.00;;;;5030607;28;20196;-78
2021/10/04 03:00:37;;;;;;;0.52;0.30;;;;;17.80;101000.00;;;;5032236;28;20207;-78
2021/10/04 03:03:05;;;;;;;0.73;0.63;;;;;17.70;101000.00;;;;5050210;28;20227;-77
2021/10/04 03:05:34;;;;;;;1.60;0.88;;;;;17.70;101008.00;;;;5044030;28;20191;-78
2021/10/04 03:08:02;;;;;;;1.58;0.57;;;;;17.70;101016.00;;;;5050387;28;20191;-77
2021/10/04 03:10:30;;;;;;;0.95;0.50;;;;;17.70;101022.00;;;;5041761;28;20684;-77
2021/10/04 03:12:58;;;;;;;1.02;0.50;;;;;17.70;101014.00;;;;5036987;28;20219;-77
2021/10/04 03:15:26;;;;;;;1.40;0.60;;;;;17.70;101023.00;;;;5043670;28;20207;-78
2021/10/04 03:17:54;;;;;;;2.10;0.40;;;;;17.70;101023.00;;;;5041479;28;20203;-78
2021/10/04 03:20:21;;;;;;;1.63;0.68;;;;;17.70;101020.00;;;;5030834;28;20204;-78
2021/10/04 03:22:50;;;;;;;0.55;0.40;;;;;17.70;101027.00;;;;5035792;28;20215;-78
2021/10/04 03:25:18;;;;;;;4.63;0.60;;;;;17.70;101025.00;;;;5033176;28;20200;-78
2021/10/04 03:27:45;;;;;;;1.10;0.52;;;;;17.60;101032.00;;;;5036825;28;20346;-77
2021/10/04 03:30:12;;;;;;;2.03;0.55;;;;;17.60;101030.00;;;;5037174;28;20208;-78
2021/10/04 03:32:40;;;;;;;1.40;0.60;;;;;17.60;101037.00;;;;5040655;28;20204;-77
2021/10/04 03:35:10;;;;;;;1.00;0.57;;;;;17.60;101030.00;;;;5034788;28;20204;-78
2021/10/04 03:37:37;;;;;;;0.93;0.52;;;;;17.60;101031.00;;;;5038445;28;20231;-78
2021/10/04 03:40:08;;;;;;;0.80;0.52;;;;;17.60;101045.00;;;;5035333;28;20576;-78
2021/10/04 03:42:36;;;;;;;1.63;0.82;;;;;17.60;101038.00;;;;5042640;28;20223;-77
2021/10/04 03:45:04;;;;;;;3.00;0.82;;;;;17.60;101048.00;;;;5032111;28;20204;-78
2021/10/04 03:47:31;;;;;;;1.05;0.60;;;;;17.60;101039.00;;;;5038375;28;20713;-77
2021/10/04 03:49:58;;;;;;;1.10;0.73;;;;;17.60;101037.00;;;;5043194;28;20207;-78
2021/10/04 03:52:26;;;;;;;1.65;0.63;;;;;17.60;101045.00;;;;5049151;28;20207;-77
2021/10/04 03:54:53;;;;;;;2.88;1.00;;;;;17.50;101045.00;;;;5036033;28;20209;-77
2021/10/04 03:57:21;;;;;;;2.88;0.80;;;;;17.50;101059.00;;;;5031858;28;20199;-77
2021/10/04 03:59:49;;;;;;;1.67;0.63;;;;;17.50;101052.00;;;;5036591;28;20204;-77
2021/10/04 04:02:16;;;;;;;1.38;0.65;;;;;17.50;101058.00;;;;5029180;28;20354;-77
2021/10/04 04:04:43;;;;;;;2.28;0.70;;;;;17.50;101062.00;;;;5032314;28;20208;-77
2021/10/04 04:07:10;;;;;;;1.60;0.90;;;;;17.50;101079.00;;;;5029166;28;20215;-77
2021/10/04 04:09:38;;;;;;;1.13;0.70;;;;;17.50;101088.00;;;;5030905;28;20223;-77
2021/10/04 04:12:05;;;;;;;0.85;0.45;;;;;17.50;101085.00;;;;5034512;28;20201;-77
2021/10/04 04:14:34;;;;;;;1.55;0.60;;;;;17.50;101083.00;;;;5030984;28;20203;-77
2021/10/04 04:17:01;;;;;;;1.95;0.70;;;;;17.50;101086.00;;;;5037959;28;20246;-77
2021/10/04 04:19:28;;;;;;;1.20;0.77;;;;;17.50;101100.00;;;;5038490;28;20208;-77
2021/10/04 04:21:55;;;;;;;1.17;0.60;;;;;17.50;101104.00;;;;5029539;28;20689;-77
2021/10/04 04:24:23;;;;;;;1.05;0.50;;;;;17.50;101094.00;;;;5035110;28;20249;-77
2021/10/04 04:26:53;;;;;;;1.17;0.70;;;;;17.50;101099.00;;;;5032879;28;20303;-77
2021/10/04 04:29:22;;;;;;;1.92;0.50;;;;;17.50;101093.00;;;;5039684;28;20885;-77
2021/10/04 04:31:51;;;;;;;1.10;0.50;;;;;17.50;101108.00;;;;5028478;28;20266;-78
2021/10/04 04:34:18;;;;;;;1.27;0.35;;;;;17.50;101102.00;;;;5028463;28;20203;-77
2021/10/04 04:36:46;;;;;;;2.25;0.60;;;;;17.50;101105.00;;;;5028485;28;20192;-77
2021/10/04 04:39:13;;;;;;;2.05;0.60;;;;;17.50;101096.00;;;;5037419;28;20204;-77
2021/10/04 04:41:40;;;;;;;0.70;0.40;;;;;17.50;101094.00;;;;5032019;28;20211;-77
2021/10/04 04:44:08;;;;;;;0.60;0.45;;;;;17.40;101100.00;;;;5041792;28;20711;-77
2021/10/04 04:46:35;;;;;;;4.32;1.13;;;;;17.40;101107.00;;;;5029073;28;20282;-76
2021/10/04 04:49:03;;;;;;;0.60;0.50;;;;;17.40;101108.00;;;;5033406;28;20604;-76
2021/10/04 04:51:31;;;;;;;1.52;0.55;;;;;17.40;101110.00;;;;5043792;28;20229;-76
2021/10/04 04:53:58;;;;;;;1.75;0.88;;;;;17.40;101120.00;;;;5042381;28;20192;-76
2021/10/04 04:56:25;;;;;;;1.45;0.88;;;;;17.40;101118.00;;;;5034842;28;20204;-76
2021/10/04 04:58:52;;;;;;;0.55;0.45;;;;;17.40;101117.00;;;;5044790;28;20195;-76
2021/10/04 05:01:19;;;;;;;1.10;0.60;;;;;17.40;101118.00;;;;5034741;28;20196;-76
2021/10/04 05:03:47;;;;;;;0.60;0.40;;;;;17.40;101132.00;;;;5034994;28;20224;-75
2021/10/04 05:06:15;;;;;;;2.30;0.80;;;;;17.40;101129.00;;;;5032946;28;20196;-75
2021/10/04 05:08:43;;;;;;;2.67;0.60;;;;;17.40;101128.00;;;;5040178;28;20210;-75
2021/10/04 05:11:10;;;;;;;0.95;0.65;;;;;17.40;101130.00;;;;5041257;28;20204;-76
2021/10/04 05:13:37;;;;;;;0.70;0.50;;;;;17.40;101129.00;;;;5034785;28;20693;-75
2021/10/04 05:16:05;;;;;;;0.77;0.50;;;;;17.40;101136.00;;;;5047593;28;20223;-76
2021/10/04 05:18:32;;;;;;;1.95;1.05;;;;;17.40;101151.00;;;;5034574;28;20207;-76
2021/10/04 05:21:00;;;;;;;3.38;0.80;;;;;17.30;101141.00;;;;5040467;28;20219;-76
2021/10/04 05:23:30;;;;;;;0.60;0.50;;;;;17.30;101142.00;;;;5046350;28;20224;-76
2021/10/04 05:25:57;;;;;;;0.52;0.50;;;;;17.40;101147.00;;;;5040536;28;20196;-75
2021/10/04 05:28:25;;;;;;;0.50;0.43;;;;;17.30;101149.00;;;;5030806;28;20242;-76
2021/10/04 05:30:52;;;;;;;6.72;1.35;;;;;17.30;101148.00;;;;5043864;28;20206;-76
2021/10/04 05:33:19;;;;;;;1.08;0.60;;;;;17.30;101147.00;;;;5042958;28;20654;-76
2021/10/04 05:35:47;;;;;;;1.92;0.80;;;;;17.30;101143.00;;;;5048828;28;20206;-75
2021/10/04 05:38:14;;;;;;;0.93;0.60;;;;;17.30;101130.00;;;;5050306;28;20736;-77
2021/10/04 05:40:43;;;;;;;1.85;1.05;;;;;17.30;101132.00;;;;5044477;28;20200;-76
2021/10/04 05:43:10;;;;;;;2.72;0.93;;;;;17.30;101150.00;;;;5050666;28;20235;-77
2021/10/04 05:45:38;;;;;;;1.05;0.50;;;;;17.30;101159.00;;;;5041453;28;20224;-76
2021/10/04 05:48:06;;;;;;;1.13;0.70;;;;;17.30;101157.00;;;;5034251;28;20204;-75
2021/10/04 05:50:33;;;;;;;1.38;0.50;;;;;17.30;101160.00;;;;5033649;28;20196;-76
2021/10/04 05:53:00;;;;;;;1.25;0.60;;;;;17.30;101158.00;;;;5030836;28;20596;-75
2021/10/04 05:55:28;;;;;;;1.13;0.63;;;;;17.30;101167.00;;;;5037157;28;20201;-76
2021/10/04 05:57:56;;;;;;;0.98;0.60;;;;;17.30;101171.00;;;;5030525;28;20557;-76
2021/10/04 06:00:23;;;;;;;0.85;0.45;;;;;17.30;101167.00;;;;5039150;28;20196;-76
2021/10/04 06:02:51;;;;;;;0.73;0.40;;;;;17.30;101173.00;;;;5030014;28;20596;-79
2021/10/04 06:05:18;;;;;;;0.77;0.30;;;;;17.30;101181.00;;;;5030144;28;20289;-79
2021/10/04 06:07:45;;;;;;;1.92;0.70;;;;;17.30;101180.00;;;;5030357;28;20192;-78
2021/10/04 06:10:15;;;;;;;1.13;0.82;;;;;17.30;101183.00;;;;5030226;28;20281;-79
2021/10/04 06:12:43;;;;;;;2.30;0.45;;;;;17.30;101181.00;;;;5030134;28;20596;-78
2021/10/04 06:15:13;;;;;;;0.68;0.50;;;;;17.30;101184.00;;;;5034265;28;20214;-78
2021/10/04 06:17:41;;;;;;;3.83;0.40;;;;;17.40;101181.00;;;;5033019;28;20669;-78
2021/10/04 06:20:10;;;;;;;1.88;0.52;;;;;17.40;101184.00;;;;5035887;28;20203;-79
2021/10/04 06:22:38;;;;;;;0.90;0.35;;;;;17.40;101188.00;;;;5039739;28;20223;-78
2021/10/04 06:25:07;;;;;;;1.60;0.60;;;;;17.40;101179.00;;;;5050710;28;20196;-79
2021/10/04 06:27:34;;;;;;;2.85;0.70;;;;;17.40;101195.00;;;;5030734;28;20192;-78
2021/10/04 06:30:02;;;;;;;2.35;0.57;;;;;17.40;101195.00;;;;5037305;28;20391;-79
2021/10/04 06:32:30;;;;;;;0.90;0.50;;;;;17.40;101200.00;;;;5033344;28;20209;-79
2021/10/04 06:34:58;;;;;;;0.90;0.65;;;;;17.40;101205.00;;;;5038255;28;20291;-79
2021/10/04 06:37:25;;;;;;;1.13;0.60;;;;;17.40;101208.00;;;;5038364;28;20223;-78
2021/10/04 06:39:52;;;;;;;1.35;0.50;;;;;17.40;101217.00;;;;5047376;28;20241;-79
2021/10/04 06:42:19;;;;;;;1.25;0.50;;;;;17.40;101217.00;;;;5045797;28;20230;-79
2021/10/04 06:44:47;;;;;;;3.55;1.17;;;;;17.40;101215.00;;;;5049731;28;20199;-79
2021/10/04 06:47:14;;;;;;;1.80;0.40;;;;;17.40;101216.00;;;;5036134;28;20713;-79
2021/10/04 06:49:43;;;;;;;2.85;0.75;;;;;17.40;101226.00;;;;5047805;28;20203;-78
2021/10/04 06:52:10;;;;;;;4.13;0.77;;;;;17.40;101237.00;;;;5043588;28;20772;-79
2021/10/04 06:54:38;;;;;;;2.20;0.68;;;;;17.40;101236.00;;;;5040832;28;20207;-78
2021/10/04 06:57:05;;;;;;;2.60;0.50;;;;;17.40;101245.00;;;;5045228;28;20200;-79
2021/10/04 06:59:34;;;;;;;1.98;0.57;;;;;17.40;101252.00;;;;5028757;28;20666;-79
2021/10/04 07:02:02;;;;;;;1.13;0.60;;;;;17.40;101246.00;;;;5034957;28;20200;-79
2021/10/04 07:04:29;;;;;;;1.30;0.63;;;;;17.40;101243.00;;;;5037532;28;20204;-77
2021/10/04 07:06:58;;;;;;;0.63;0.35;;;;;17.40;101243.00;;;;5038319;28;20196;-78
2021/10/04 07:09:25;;;;;;;0.90;0.40;;;;;17.40;101244.00;;;;5035349;28;20259;-80
2021/10/04 07:11:52;;;;;;;0.85;0.50;;;;;17.40;101244.00;;;;5048714;28;20195;-79
2021/10/04 07:14:20;;;;;;;1.50;0.60;;;;;17.40;101247.00;;;;5038986;28;20200;-78
2021/10/04 07:16:47;;;;;;;1.02;0.47;;;;;17.40;101251.00;;;;5038536;28;20204;-78
2021/10/04 07:19:14;;;;;;;0.70;0.50;;;;;17.40;101256.00;;;;5035014;28;20207;-78
2021/10/04 07:21:43;;;;;;;1.25;0.40;;;;;17.40;101257.00;;;;5047527;28;20199;-78
2021/10/04 07:24:11;;;;;;;2.05;0.77;;;;;17.50;101253.00;;;;5037266;28;20219;-79
2021/10/04 07:26:39;;;;;;;0.65;0.30;;;;;17.50;101260.00;;;;5036655;28;20207;-79
2021/10/04 07:29:06;;;;;;;2.92;0.55;;;;;17.50;101257.00;;;;5033092;28;20204;-79
2021/10/04 07:31:33;;;;;;;1.42;0.63;;;;;17.60;101257.00;;;;5035828;28;20200;-79
2021/10/04 07:34:01;;;;;;;2.05;0.52;;;;;17.60;101252.00;;;;5034472;28;20192;-78
2021/10/04 07:36:28;;;;;;;1.55;0.55;;;;;17.60;101248.00;;;;5039324;28;20254;-79
2021/10/04 07:38:55;;;;;;;1.42;0.50;;;;;17.70;101255.00;;;;5041113;28;20227;-79
2021/10/04 07:41:24;;;;;;;0.68;0.45;;;;;17.70;101261.00;;;;5038211;28;20196;-78
2021/10/04 07:43:51;;;;;;;3.40;0.70;;;;;17.80;101269.00;;;;5042240;28;20231;-79
2021/10/04 07:46:19;;;;;;;1.58;0.40;;;;;17.80;101264.00;;;;5041973;28;20220;-79
2021/10/04 07:48:46;;;;;;;1.88;0.68;;;;;17.90;101267.00;;;;5037645;28;20550;-79
2021/10/04 07:51:15;;;;;;;1.00;0.60;;;;;18.00;101277.00;;;;5033297;28;20196;-80
2021/10/04 07:53:42;;;;;;;2.25;0.90;;;;;18.00;101265.00;;;;5048048;28;20208;-78
2021/10/04 07:56:10;;;;;;;3.00;0.65;;;;;18.10;101265.00;;;;5042847;28;20191;-77
2021/10/04 07:58:38;;;;;;;3.03;0.47;;;;;18.10;101264.00;;;;5035067;28;20693;-78
2021/10/04 08:01:05;;;;;;;0.98;0.55;;;;;18.20;101264.00;;;;5031798;28;20192;-77
2021/10/04 08:03:33;;;;;;;0.80;0.47;;;;;18.30;101264.00;;;;5044964;28;20219;-77
2021/10/04 08:06:00;;;;;;;2.53;0.80;;;;;18.30;101269.00;;;;5047244;28;20245;-77
2021/10/04 08:08:27;;;;;;;1.30;0.73;;;;;18.40;101273.00;;;;5031025;28;20192;-77
2021/10/04 08:10:54;;;;;;;2.80;0.50;;;;;18.40;101273.00;;;;5027717;28;20203;-78
2021/10/04 08:13:21;;;;;;;2.75;0.90;;;;;18.50;101261.00;;;;5031549;28;20192;-77
2021/10/04 08:15:50;;;;;;;4.68;0.95;;;;;18.50;101261.00;;;;5040317;28;20191;-78
2021/10/04 08:18:17;;;;;;;1.08;0.50;;;;;18.60;101270.00;;;;5045312;28;20200;-79
2021/10/04 08:20:45;;;;;;;1.27;0.68;;;;;18.70;101269.00;;;;5037766;28;20549;-79
2021/10/04 08:23:13;;;;;;;2.47;0.50;;;;;18.80;101276.00;;;;5032828;28;20742;-77
2021/10/04 08:25:40;;;;;;;1.92;0.43;;;;;18.80;101267.00;;;;5035232;28;20199;-78
2021/10/04 08:28:08;;;;;;;1.30;0.43;;;;;18.90;101274.00;;;;5037409;28;20838;-78
2021/10/04 08:30:35;;;;;;;2.63;0.30;;;;;18.90;101267.00;;;;5035947;28;20208;-79
2021/10/04 08:33:04;;;;;;;0.40;0.20;;;;;19.00;101272.00;;;;5034131;28;20693;-78
2021/10/04 08:35:31;;;;;;;3.65;0.47;;;;;19.10;101270.00;;;;5040928;28;20623;-78
2021/10/04 08:37:58;;;;;;;1.35;0.50;;;;;19.20;101262.00;;;;5036306;28;20242;-78
2021/10/04 08:40:25;;;;;;;0.57;0.20;;;;;19.20;101264.00;;;;5035326;28;20624;-78
2021/10/04 08:42:53;;;;;;;2.75;0.40;;;;;19.30;101260.00;;;;5039285;28;20192;-78
2021/10/04 08:45:25;;;;;;;1.65;0.93;;;;;19.30;101262.00;;;;5035651;28;20192;-78
2021/10/04 08:47:58;;;;;;;0.45;0.22;;;;;19.40;101261.00;;;;5037903;28;20242;-77
2021/10/04 08:50:28;;;;;;;0.20;0.15;;;;;19.50;101267.00;;;;5044553;28;20682;-77
2021/10/04 08:52:56;;;;;;;2.17;0.70;;;;;19.60;101280.00;;;;5037964;28;20287;-77
2021/10/04 08:55:23;;;;;;;1.92;0.65;;;;;19.70;101277.00;;;;5044206;28;20208;-78
2021/10/04 08:57:51;;;;;;;3.13;0.63;;;;;19.70;101278.00;;;;5040024;28;20203;-78
2021/10/04 09:00:18;;;;;;;0.90;0.25;;;;;19.80;101284.00;;;;5037573;28;20215;-77
2021/10/04 09:02:48;;;;;;;2.50;0.70;;;;;19.90;101276.00;;;;5041690;28;20203;-77
2021/10/04 09:05:18;;;;;;;2.38;0.82;;;;;20.00;101277.00;;;;5043027;28;20557;-78
2021/10/04 09:07:49;;;;;;;1.73;0.40;;;;;20.00;101277.00;;;;5038196;28;20195;-78
2021/10/04 09:10:18;;;;;;;2.28;0.40;;;;;20.10;101280.00;;;;5042685;28;20207;-78
2021/10/04 09:12:50;;;;;;;1.80;0.40;;;;;20.20;101280.00;;;;5036704;28;22151;-79
2021/10/04 09:15:36;;;;;;;2.08;0.30;;;;;20.20;101280.00;;;;5042407;28;20658;-78
2021/10/04 09:18:06;;;;;;;1.95;0.22;;;;;20.30;101279.00;;;;5030577;28;20192;-77
2021/10/04 09:20:52;;;;;;;2.60;0.35;;;;;20.30;101270.00;;;;5040033;28;20196;-77
2021/10/04 09:23:46;;;;;;;3.40;0.50;;;;;20.40;101283.00;;;;5039357;28;20227;-79
2021/10/04 09:26:33;;;;;;;0.93;0.30;;;;;20.50;101284.00;;;;5029015;28;20196;-77
2021/10/04 09:29:03;;;;;;;1.27;0.73;;;;;20.70;101267.00;;;;5039476;28;22053;-78
2021/10/04 09:31:33;;;;;;;1.08;0.43;;;;;20.80;101264.00;;;;5044462;28;20209;-78
2021/10/04 09:34:11;;;;;;;1.55;0.85;;;;;20.80;101271.00;;;;5036879;28;20214;-77
2021/10/04 09:36:40;;;;;;;3.63;0.60;;;;;20.90;101265.00;;;;5036272;28;20200;-78
2021/10/04 09:39:24;;;;;;;1.60;0.32;;;;;21.00;101270.00;;;;5033077;28;20235;-77
2021/10/04 09:42:07;;;;;;;1.20;0.32;;;;;21.10;101293.00;;;;5030110;28;20688;-77
2021/10/04 09:45:02;;;;;;;2.75;0.70;;;;;21.10;101280.00;;;;5034496;28;20226;-77
2021/10/04 09:47:31;;;;;;;1.33;0.50;;;;;21.20;101279.00;;;;5036799;28;20238;-77
2021/10/04 09:50:02;;;;;;;0.85;0.40;;;;;21.30;101280.00;;;;5034431;28;20203;-77
2021/10/04 09:52:38;;;;;;;3.28;0.60;;;;;21.30;101280.00;;;;5031895;28;20200;-77
2021/10/04 09:55:17;;;;;;;1.15;0.55;;;;;21.40;101281.00;;;;5045823;28;20199;-77
2021/10/04 09:57:53;;;;;;;1.77;1.00;;;;;21.60;101280.00;;;;5035243;28;20203;-78
2021/10/04 10:00:21;;;;;;;1.52;0.57;;;;;21.60;101287.00;;;;5034908;28;20247;-78
2021/10/04 10:02:54;;;;;;;1.23;0.52;;;;;21.70;101283.00;;;;5036922;28;20204;-78
2021/10/04 10:05:23;;;;;;;1.70;0.40;;;;;21.80;101289.00;;;;5039365;28;20323;-77
2021/10/04 10:07:51;;;;;;;1.67;0.50;;;;;21.90;101285.00;;;;5039427;28;20241;-77
2021/10/04 10:10:20;;;;;;;1.55;0.35;;;;;22.00;101280.00;;;;5037424;28;20212;-77
2021/10/04 10:12:48;;;;;;;1.20;0.40;;;;;22.10;101283.00;;;;5031404;28;20204;-79
2021/10/04 10:15:22;;;;;;;2.15;0.45;;;;;22.10;101292.00;;;;5036848;28;20672;-78
2021/10/04 10:17:51;;;;;;;0.82;0.40;;;;;22.20;101289.00;;;;5038314;28;21088;-78
2021/10/04 10:20:21;;;;;;;2.08;0.70;;;;;22.30;101292.00;;;;5036494;28;20208;-79
2021/10/04 10:22:50;;;;;;;2.15;0.57;;;;;22.30;101286.00;;;;5037127;28;20204;-78
2021/10/04 10:25:30;;;;;;;2.13;0.63;;;;;22.30;101301.00;;;;5041679;28;20238;-78
2021/10/04 10:27:58;;;;;;;3.05;0.47;;;;;22.40;101287.00;;;;5046052;28;20196;-78
2021/10/04 10:30:27;;;;;;;1.30;0.38;;;;;22.50;101287.00;;;;5047180;28;20201;-77
2021/10/04 10:32:56;;;;;;;2.45;0.38;;;;;22.50;101290.00;;;;5052796;28;20195;-77
2021/10/04 10:35:52;;;;;;;2.00;0.50;;;;;22.40;101291.00;;;;5048348;28;20250;-77
2021/10/04 10:39:06;;;;;;;2.67;1.15;;;;;22.50;101290.00;;;;5050756;28;20348;-77
2021/10/04 10:41:35;;;;;;;5.70;0.60;;;;;22.70;101281.00;;;;4998427;28;20197;-77
2021/10/04 10:44:12;;;;;;;2.85;0.75;;;;;22.60;101288.00;;;;5035195;28;20228;-77
2021/10/04 10:46:54;;;;;;;0.82;0.30;;;;;22.70;101284.00;;;;5034711;28;20215;-77
2021/10/04 10:49:58;;;;;;;2.20;0.47;;;;;22.70;101288.00;;;;5044674;28;20663;-79
2021/10/04 10:52:27;;;;;;;2.47;0.38;;;;;22.80;101273.00;;;;5039927;28;20196;-79
2021/10/04 10:54:54;;;;;;;9.57;0.57;;;;;22.80;101282.00;;;;5033296;28;20193;-78
2021/10/04 10:57:25;;;;;;;3.88;0.73;;;;;22.90;101276.00;;;;5043047;28;20570;-78
2021/10/04 11:00:14;;;;;;;1.77;0.55;;;;;22.90;101280.00;;;;5037152;28;20184;-78
2021/10/04 11:02:50;;;;;;;8.68;1.05;;;;;23.00;101283.00;;;;5034034;28;20200;-79
2021/10/04 11:05:55;;;;;;;3.60;0.80;;;;;23.00;101283.00;;;;5040655;28;20214;-78
2021/10/04 11:08:26;;;;;;;4.85;0.50;;;;;23.10;101292.00;;;;5046868;28;20249;-77
2021/10/04 11:11:15;;;;;;;4.95;0.60;;;;;23.00;101297.00;;;;5048006;28;20199;-77
2021/10/04 11:13:57;;;;;;;2.40;0.50;;;;;23.20;101289.00;;;;5042892;28;20302;-77
2021/10/04 11:16:39;;;;;;;2.03;0.60;;;;;23.10;101299.00;;;;5042772;28;20192;-77
2021/10/04 11:19:08;;;;;;;2.05;0.65;;;;;23.20;101294.00;;;;5034156;28;20195;-76
2021/10/04 11:21:44;;;;;;;1.40;0.55;;;;;23.30;101297.00;;;;5034520;28;20204;-77
2021/10/04 11:24:11;;;;;;;2.08;0.60;;;;;23.30;101291.00;;;;5029618;28;20297;-77
2021/10/04 11:26:40;;;;;;;3.55;0.70;;;;;23.40;101299.00;;;;5042595;28;20562;-78
2021/10/04 11:29:11;;;;;;;1.40;0.50;;;;;23.40;101295.00;;;;5043570;28;20223;-77
2021/10/04 11:31:44;;;;;;;2.60;0.35;;;;;23.50;101280.00;;;;5033553;28;20658;-77
2021/10/04 11:34:13;;;;;;;3.85;0.50;;;;;23.50;101285.00;;;;5044350;28;20873;-78
2021/10/04 11:36:42;;;;;;;4.25;0.82;;;;;23.50;101289.00;;;;5029398;28;20250;-77
2021/10/04 11:39:13;;;;;;;2.03;0.60;;;;;23.50;101295.00;;;;5028705;28;20717;-77
2021/10/04 11:41:43;;;;;;;3.00;0.75;;;;;23.60;101285.00;;;;5038883;28;20215;-77
2021/10/04 11:44:14;;;;;;;1.70;0.60;;;;;23.60;101293.00;;;;5037570;28;20227;-77
2021/10/04 11:46:45;;;;;;;4.22;0.85;;;;;23.60;101289.00;;;;5043672;28;20216;-77
2021/10/04 11:49:14;;;;;;;1.60;0.50;;;;;23.60;101292.00;;;;5041707;28;20684;-77
2021/10/04 11:51:47;;;;;;;2.85;0.50;;;;;23.60;101298.00;;;;5030654;28;20699;-78
2021/10/04 11:54:34;;;;;;;2.83;0.70;;;;;23.50;101281.00;;;;5043419;28;20199;-77
2021/10/04 11:57:03;;;;;;;3.47;0.43;;;;;23.50;101291.00;;;;5037194;28;20192;-78
2021/10/04 11:59:45;;;;;;;2.33;0.40;;;;;23.40;101301.00;;;;5044070;28;20286;-76
2021/10/04 12:02:22;;;;;;;8.20;0.65;;;;;23.40;101283.00;;;;5040783;28;20211;-75
2021/10/04 12:04:50;;;;;;;7.15;1.02;;;;;23.50;101279.00;;;;5041334;28;20313;-76
2021/10/04 12:07:20;;;;;;;2.88;0.70;;;;;23.50;101286.00;;;;5050882;28;20195;-76
2021/10/04 12:09:56;;;;;;;4.03;0.80;;;;;23.40;101286.00;;;;5036562;28;20193;-76
2021/10/04 12:12:34;;;;;;;3.03;0.77;;;;;23.40;101272.00;;;;5049783;28;20290;-76
2021/10/04 12:15:03;;;;;;;1.38;0.60;;;;;23.50;101263.00;;;;5048233;28;20286;-77
2021/10/04 12:17:35;;;;;;;4.20;0.60;;;;;23.50;101268.00;;;;5057806;28;20206;-77
2021/10/04 12:20:03;;;;;;;1.48;0.60;;;;;23.50;101271.00;;;;5049559;28;20191;-77